Terminal Aerodrome Forecast
Issued by NWS

Home | Current Version | Previous Version | Graphics & Text | Print | Product List | Glossary On
Versions: 1 2 3 4 5 6 7 8 9 10 11 12 13 14 15
000
FTUS43 KMPX 161722
TAFRWF
TAF
KRWF 161722Z 1618/1718 25007KT P6SM BKN070
     FM162200 27005KT P6SM FEW050 BKN150
     FM170300 34005KT P6SM FEW100
     FM171200 03004KT P6SM SCT250=

USA.gov is the U.S. government's official web portal to all federal, state and local government web resources and services.